Time;durP1;ratioP1;P1;durP2;ratioP2;P2;SDS_P1;SDS_P2;PMS_P1;PMS_P2;Temp;Humidity;BMP_temperature;BMP_pressure;BME280_temperature;BME280_humidity;BME280_pressure;Samples;Min_cycle;Max_cycle;Signal;HPM_P1;HPM_P2
2022/03/26 00:00:08;;;;;;;35.80;19.07;;;;;;;0.84;54.11;98658.83;1802535;79;20987;-82
2022/03/26 00:02:36;;;;;;;41.02;19.00;;;;;;;0.76;55.91;98662.59;1802322;79;21074;-83
2022/03/26 00:05:04;;;;;;;37.95;19.25;;;;;;;0.74;55.13;98667.77;1802147;79;21027;-83
2022/03/26 00:07:31;;;;;;;33.65;18.25;;;;;;;0.72;56.23;98664.67;1802487;79;21416;-83
2022/03/26 00:09:57;;;;;;;38.45;18.90;;;;;;;0.63;56.41;98654.48;1802592;79;21007;-83
2022/03/26 00:12:23;;;;;;;36.33;18.07;;;;;;;0.59;57.70;98657.02;1802714;79;21059;-82
2022/03/26 00:14:50;;;;;;;38.80;18.20;;;;;;;0.57;55.56;98654.36;1786578;79;21023;-83
2022/03/26 00:17:17;;;;;;;32.93;17.32;;;;;;;0.51;56.59;98660.32;1804629;79;21480;-84
2022/03/26 00:19:43;;;;;;;38.67;18.27;;;;;;;0.48;56.25;98655.47;1808495;79;21042;-83
2022/03/26 00:22:10;;;;;;;34.13;17.98;;;;;;;0.49;55.63;98654.61;1776333;79;21063;-84
2022/03/26 00:24:37;;;;;;;33.42;16.67;;;;;;;0.45;55.07;98652.37;1769239;80;22258;-83
2022/03/26 00:27:04;;;;;;;34.88;17.00;;;;;;;0.41;57.36;98658.80;1757984;81;21075;-82
2022/03/26 00:29:31;;;;;;;31.77;18.50;;;;;;;0.37;56.35;98656.12;1758110;82;21441;-84
2022/03/26 00:31:58;;;;;;;36.05;18.35;;;;;;;0.34;55.56;98655.18;1751510;81;21008;-84
2022/03/26 00:34:24;;;;;;;35.03;16.95;;;;;;;0.33;55.63;98652.98;1745529;82;21027;-84
2022/03/26 00:36:50;;;;;;;30.88;17.23;;;;;;;0.26;55.65;98654.56;1777177;80;21043;-83
2022/03/26 00:39:17;;;;;;;36.53;17.10;;;;;;;0.28;55.98;98657.66;1745639;82;21012;-83
2022/03/26 00:41:43;;;;;;;33.25;17.67;;;;;;;0.29;56.03;98651.15;1745585;82;21047;-83
2022/03/26 00:44:10;;;;;;;40.45;18.73;;;;;;;0.26;57.00;98660.22;1755799;81;20992;-83
2022/03/26 00:46:36;;;;;;;34.78;18.73;;;;;;;0.21;57.18;98661.84;1745920;81;21060;-84
2022/03/26 00:49:03;;;;;;;32.45;16.95;;;;;;;0.16;57.39;98663.03;1745678;82;21024;-83
2022/03/26 00:51:30;;;;;;;30.97;16.50;;;;;;;0.12;57.30;98660.78;1745358;82;21063;-83
2022/03/26 00:53:56;;;;;;;37.58;18.00;;;;;;;0.11;56.52;98665.55;1745461;81;21504;-84
2022/03/26 00:56:23;;;;;;;37.63;18.82;;;;;;;0.10;56.34;98668.11;1768898;81;21013;-84
2022/03/26 00:58:49;;;;;;;34.18;17.82;;;;;;;0.08;56.39;98672.42;1774444;81;21050;-83
2022/03/26 01:01:16;;;;;;;30.50;17.65;;;;;;;0.06;56.41;98665.86;1774212;81;21032;-83
2022/03/26 01:03:42;;;;;;;34.13;16.97;;;;;;;0.06;56.60;98668.88;1762112;81;21102;-84
2022/03/26 01:06:09;;;;;;;29.85;16.15;;;;;;;0.00;56.17;98664.42;1743823;82;21035;-84
2022/03/26 01:08:35;;;;;;;41.53;18.20;;;;;;;0.00;56.97;98656.60;1744243;82;22131;-84
2022/03/26 01:11:01;;;;;;;33.53;17.62;;;;;;;0.00;56.30;98663.12;1744416;82;21039;-85
2022/03/26 01:13:30;;;;;;;30.50;16.62;;;;;;;-0.04;56.64;98653.46;1763364;81;21004;-84
2022/03/26 01:15:56;;;;;;;35.55;17.35;;;;;;;-0.03;56.93;98665.64;1773374;81;21496;-84
2022/03/26 01:18:22;;;;;;;36.03;17.75;;;;;;;-0.04;56.43;98662.58;1774146;81;21031;-85
2022/03/26 01:20:49;;;;;;;35.50;18.17;;;;;;;-0.03;56.42;98660.42;1774785;81;21050;-84
2022/03/26 01:23:19;;;;;;;34.00;17.15;;;;;;;-0.03;56.34;98661.73;1774816;81;20988;-84
2022/03/26 01:25:44;;;;;;;40.85;18.67;;;;;;;0.00;56.82;98663.12;1788942;79;21020;-84
2022/03/26 01:28:10;;;;;;;36.83;17.60;;;;;;;-0.01;56.57;98669.15;1803754;79;21003;-83
2022/03/26 01:30:36;;;;;;;35.38;17.67;;;;;;;-0.02;56.37;98670.00;1794088;79;21158;-84
2022/03/26 01:33:03;;;;;;;33.42;15.32;;;;;;;-0.03;56.28;98662.59;1803597;79;20975;-83
2022/03/26 01:35:29;;;;;;;33.83;17.70;;;;;;;-0.02;56.48;98671.30;1803446;79;21054;-83
2022/03/26 01:37:56;;;;;;;36.90;16.80;;;;;;;-0.01;56.55;98673.95;1803286;79;21062;-83
2022/03/26 01:40:22;;;;;;;33.02;16.45;;;;;;;-0.05;57.51;98673.82;1803488;79;21482;-83
2022/03/26 01:42:49;;;;;;;33.25;17.15;;;;;;;-0.07;56.96;98676.83;1802857;79;20980;-83
2022/03/26 01:45:16;;;;;;;33.88;17.60;;;;;;;-0.10;57.37;98675.03;1802137;78;20999;-83
2022/03/26 01:47:42;;;;;;;35.80;18.10;;;;;;;-0.20;59.13;98676.52;1771916;81;21001;-83
2022/03/26 01:50:09;;;;;;;30.23;17.00;;;;;;;-0.27;57.67;98674.61;1771961;81;21041;-83
2022/03/26 01:52:36;;;;;;;32.10;17.00;;;;;;;-0.35;60.54;98674.42;1772162;80;20998;-83
2022/03/26 01:55:04;;;;;;;30.17;16.05;;;;;;;-0.40;58.53;98676.89;1772628;80;20984;-83
2022/03/26 01:57:31;;;;;;;31.10;15.58;;;;;;;-0.37;58.21;98676.13;1772216;80;21080;-83
2022/03/26 01:59:58;;;;;;;28.23;15.70;;;;;;;-0.40;57.85;98684.70;1771666;81;21027;-83
2022/03/26 02:02:25;;;;;;;29.35;15.93;;;;;;;-0.44;57.42;98680.70;1771906;80;21040;-83
2022/03/26 02:04:52;;;;;;;33.67;15.43;;;;;;;-0.44;57.47;98673.78;1772413;81;21036;-83
2022/03/26 02:07:18;;;;;;;31.97;16.12;;;;;;;-0.43;57.54;98682.45;1784202;80;21012;-83
2022/03/26 02:09:45;;;;;;;27.37;15.72;;;;;;;-0.43;57.45;98683.34;1802092;80;20999;-83
2022/03/26 02:12:29;;;;;;;29.23;15.20;;;;;;;-0.46;57.50;98678.05;1802085;80;21044;-83
2022/03/26 02:14:58;;;;;;;27.10;15.18;;;;;;;-0.52;57.79;98674.41;1801558;79;21003;-83
2022/03/26 02:17:24;;;;;;;31.52;16.25;;;;;;;-0.57;57.68;98675.59;1802108;80;21056;-83
2022/03/26 02:19:59;;;;;;;31.50;16.77;;;;;;;-0.59;58.42;98673.36;1802105;80;21429;-83
2022/03/26 02:22:28;;;;;;;30.50;16.30;;;;;;;-0.68;60.24;98671.00;1802098;80;21417;-83
2022/03/26 02:24:56;;;;;;;30.72;16.57;;;;;;;-0.72;58.79;98674.76;1801346;79;20944;-82
2022/03/26 02:27:24;;;;;;;31.62;14.83;;;;;;;-0.76;60.18;98677.70;1802223;80;21043;-83
2022/03/26 02:29:52;;;;;;;30.75;16.30;;;;;;;-0.80;59.43;98668.05;1801950;80;21015;-83
2022/03/26 02:32:24;;;;;;;31.17;15.32;;;;;;;-0.74;58.65;98682.55;1802207;80;20999;-83
2022/03/26 02:34:52;;;;;;;31.75;16.15;;;;;;;-0.74;58.46;98676.05;1802111;80;21008;-83
2022/03/26 02:37:18;;;;;;;34.33;16.42;;;;;;;-0.78;58.47;98680.70;1801591;79;21422;-83
2022/03/26 02:39:45;;;;;;;31.60;15.40;;;;;;;-0.81;58.47;98689.31;1803701;79;21009;-83
2022/03/26 02:42:14;;;;;;;31.20;16.10;;;;;;;-0.87;58.45;98677.41;1803775;79;21039;-83
2022/03/26 02:44:42;;;;;;;29.45;15.43;;;;;;;-0.89;58.72;98680.81;1803700;79;21453;-83
2022/03/26 02:47:11;;;;;;;27.87;15.20;;;;;;;-0.95;58.72;98671.13;1803750;79;21035;-83
2022/03/26 02:49:39;;;;;;;28.62;15.43;;;;;;;-0.99;58.88;98679.25;1793643;79;20999;-83
2022/03/26 02:52:06;;;;;;;35.05;15.70;;;;;;;-1.02;59.13;98678.29;1772232;81;21016;-83
2022/03/26 02:54:35;;;;;;;30.70;15.43;;;;;;;-1.05;59.26;98676.92;1772319;81;21401;-84
2022/03/26 02:57:02;;;;;;;29.60;15.05;;;;;;;-1.08;59.29;98678.58;1772103;81;21042;-84
2022/03/26 02:59:29;;;;;;;30.68;15.50;;;;;;;-1.04;59.19;98674.34;1772285;81;21023;-84
2022/03/26 03:01:55;;;;;;;31.80;16.65;;;;;;;-1.09;59.45;98674.22;1773046;79;21425;-84
2022/03/26 03:04:22;;;;;;;36.88;17.15;;;;;;;-1.04;59.21;98673.48;1772016;81;21527;-84
2022/03/26 03:06:49;;;;;;;30.30;16.85;;;;;;;-1.00;59.08;98678.80;1772248;80;21065;-84
2022/03/26 03:09:16;;;;;;;34.13;16.12;;;;;;;-1.01;59.01;98682.65;1771994;81;20996;-83
2022/03/26 03:11:42;;;;;;;27.42;14.60;;;;;;;-0.98;59.08;98678.84;1772022;81;21488;-84
2022/03/26 03:14:10;;;;;;;27.52;16.07;;;;;;;-0.98;59.13;98672.34;1787111;80;21041;-83
2022/03/26 03:16:37;;;;;;;29.18;15.40;;;;;;;-1.00;59.08;98666.23;1802011;80;20992;-83
2022/03/26 03:19:05;;;;;;;36.73;15.25;;;;;;;-1.04;59.46;98671.73;1801778;80;21452;-84
2022/03/26 03:21:32;;;;;;;34.65;16.02;;;;;;;-1.02;59.47;98668.78;1799133;80;21507;-84
2022/03/26 03:23:58;;;;;;;31.60;16.10;;;;;;;-1.03;59.13;98673.53;1772262;80;21010;-83
2022/03/26 03:26:25;;;;;;;28.12;15.65;;;;;;;-1.01;59.15;98672.24;1764866;79;21025;-83
2022/03/26 03:28:51;;;;;;;28.35;14.68;;;;;;;-1.04;59.45;98672.17;1758587;81;21051;-83
2022/03/26 03:31:18;;;;;;;31.25;16.23;;;;;;;-1.08;60.31;98669.91;1758660;81;21396;-83
2022/03/26 03:33:45;;;;;;;30.12;14.15;;;;;;;-1.05;59.61;98662.62;1774349;81;21012;-84
2022/03/26 03:36:11;;;;;;;32.85;15.25;;;;;;;-1.06;59.41;98664.33;1774732;81;21015;-84
2022/03/26 03:38:38;;;;;;;27.37;15.03;;;;;;;-1.13;59.24;98660.66;1774427;81;21437;-83
2022/03/26 03:41:04;;;;;;;29.60;14.50;;;;;;;-1.13;59.40;98669.77;1774920;81;21039;-83
2022/03/26 03:43:31;;;;;;;32.03;16.00;;;;;;;-1.17;59.68;98674.42;1774306;81;21047;-83
2022/03/26 03:45:57;;;;;;;29.05;15.18;;;;;;;-1.17;59.63;98667.91;1774400;81;21066;-84
2022/03/26 03:48:24;;;;;;;33.13;15.38;;;;;;;-1.13;59.57;98665.00;1774611;81;21012;-83
2022/03/26 03:50:50;;;;;;;29.70;15.13;;;;;;;-1.15;59.44;98658.86;1774694;81;21015;-83
2022/03/26 03:53:17;;;;;;;31.40;16.40;;;;;;;-1.16;60.25;98658.41;1774455;81;21046;-83
2022/03/26 03:55:43;;;;;;;28.00;14.75;;;;;;;-1.26;60.04;98659.44;1774242;81;20988;-83
2022/03/26 03:58:10;;;;;;;32.15;14.40;;;;;;;-1.26;60.33;98659.84;1774292;81;21082;-83
2022/03/26 04:00:36;;;;;;;31.60;16.00;;;;;;;-1.26;60.08;98654.64;1774529;81;21519;-84
2022/03/26 04:03:03;;;;;;;30.32;14.78;;;;;;;-1.28;60.86;98655.03;1774608;81;21454;-84
2022/03/26 04:05:29;;;;;;;27.22;15.50;;;;;;;-1.27;60.31;98650.29;1774534;81;21055;-84
2022/03/26 04:07:56;;;;;;;26.70;13.95;;;;;;;-1.30;62.32;98654.98;1766563;81;20968;-84
2022/03/26 04:10:22;;;;;;;31.35;13.95;;;;;;;-1.37;61.89;98656.96;1745761;82;20983;-84
2022/03/26 04:12:49;;;;;;;29.35;15.40;;;;;;;-1.40;60.71;98656.86;1745620;82;21015;-84
2022/03/26 04:15:15;;;;;;;25.68;15.20;;;;;;;-1.47;61.10;98667.50;1745436;82;21044;-84
2022/03/26 04:17:42;;;;;;;29.77;14.95;;;;;;;-1.51;61.38;98671.73;1745679;82;21413;-83
2022/03/26 04:20:10;;;;;;;29.23;15.50;;;;;;;-1.47;61.14;98668.39;1750694;81;21060;-84
2022/03/26 04:22:38;;;;;;;27.15;14.55;;;;;;;-1.44;61.04;98670.60;1758450;82;21032;-84
2022/03/26 04:25:06;;;;;;;27.67;15.60;;;;;;;-1.39;60.97;98680.72;1758552;82;21064;-85
2022/03/26 04:27:33;;;;;;;29.67;14.90;;;;;;;-1.39;61.12;98681.61;1758656;80;20994;-85
2022/03/26 04:29:59;;;;;;;27.93;13.68;;;;;;;-1.45;60.75;98681.44;1773479;81;20976;-84
2022/03/26 04:32:26;;;;;;;27.10;14.47;;;;;;;-1.41;60.61;98681.11;1774666;81;21012;-84
2022/03/26 04:34:53;;;;;;;28.42;14.63;;;;;;;-1.38;60.70;98685.97;1774408;81;21441;-84
2022/03/26 04:37:20;;;;;;;30.37;14.53;;;;;;;-1.37;60.63;98679.06;1774626;81;21027;-84
2022/03/26 04:39:47;;;;;;;32.05;16.02;;;;;;;-1.34;60.47;98689.53;1749241;81;21011;-84
2022/03/26 04:42:13;;;;;;;30.25;15.50;;;;;;;-1.35;60.72;98687.78;1745564;81;20991;-84
2022/03/26 04:44:39;;;;;;;25.75;14.55;;;;;;;-1.36;60.86;98690.78;1745534;81;20980;-84
2022/03/26 04:47:08;;;;;;;27.75;14.65;;;;;;;-1.31;60.49;98686.14;1745620;81;20968;-84
2022/03/26 04:49:34;;;;;;;29.57;14.95;;;;;;;-1.31;60.55;98690.94;1746028;81;21451;-84
2022/03/26 04:52:00;;;;;;;30.23;16.17;;;;;;;-1.31;60.57;98690.94;1774558;81;21491;-83
2022/03/26 04:54:27;;;;;;;28.75;14.95;;;;;;;-1.30;60.81;98689.23;1774664;81;21070;-84
2022/03/26 04:56:53;;;;;;;27.73;14.98;;;;;;;-1.33;60.68;98692.63;1774533;81;20995;-83
2022/03/26 04:59:20;;;;;;;28.90;15.78;;;;;;;-1.34;60.70;98687.83;1774097;81;20996;-83
2022/03/26 05:01:47;;;;;;;35.03;16.02;;;;;;;-1.34;61.12;98694.33;1774682;81;21415;-84
2022/03/26 05:04:14;;;;;;;36.55;15.75;;;;;;;-1.34;60.78;98692.13;1774347;81;21055;-84
2022/03/26 05:06:42;;;;;;;33.65;16.52;;;;;;;-1.31;60.60;98694.84;1774546;81;20991;-84
2022/03/26 05:09:08;;;;;;;31.12;16.17;;;;;;;-1.27;60.59;98706.20;1775090;81;21003;-83
2022/03/26 05:11:37;;;;;;;30.70;16.60;;;;;;;-1.28;61.21;98704.05;1776108;81;20986;-84
2022/03/26 05:14:03;;;;;;;32.28;16.90;;;;;;;-1.26;60.91;98697.16;1776295;81;21027;-83
2022/03/26 05:16:30;;;;;;;29.65;16.32;;;;;;;-1.23;60.64;98697.25;1776170;81;21003;-84
2022/03/26 05:18:57;;;;;;;31.35;16.93;;;;;;;-1.20;60.68;98699.06;1766806;81;21055;-84
2022/03/26 05:21:23;;;;;;;36.75;16.42;;;;;;;-1.15;61.16;98704.38;1763732;81;21007;-85
2022/03/26 05:23:50;;;;;;;30.50;16.37;;;;;;;-1.10;60.95;98705.39;1776229;81;20987;-85
2022/03/26 05:26:18;;;;;;;33.80;16.35;;;;;;;-1.08;60.62;98703.73;1781654;79;21567;-84
2022/03/26 05:28:45;;;;;;;33.23;16.52;;;;;;;-1.02;60.76;98707.80;1803457;79;21476;-84
2022/03/26 05:31:12;;;;;;;29.95;16.90;;;;;;;-0.99;60.55;98708.31;1772105;79;21043;-84
2022/03/26 05:33:38;;;;;;;33.60;16.97;;;;;;;-0.97;60.35;98707.52;1772151;81;21019;-84
2022/03/26 05:36:05;;;;;;;29.45;16.17;;;;;;;-0.91;60.60;98712.02;1778874;79;21446;-84
2022/03/26 05:38:32;;;;;;;35.65;17.10;;;;;;;-0.86;60.36;98713.03;1801849;80;21063;-84
2022/03/26 05:40:59;;;;;;;35.88;16.93;;;;;;;-0.78;60.36;98715.84;1802052;80;20976;-84
2022/03/26 05:43:26;;;;;;;33.80;17.20;;;;;;;-0.72;60.09;98716.00;1802225;78;21047;-84
2022/03/26 05:45:52;;;;;;;35.23;18.27;;;;;;;-0.70;60.31;98722.12;1802601;79;21098;-84
2022/03/26 05:48:19;;;;;;;33.65;17.30;;;;;;;-0.61;60.06;98720.61;1782590;80;21066;-84
2022/03/26 05:50:46;;;;;;;33.92;17.23;;;;;;;-0.59;60.24;98714.61;1777288;81;20975;-83
2022/03/26 05:53:12;;;;;;;30.77;16.12;;;;;;;-0.51;60.31;98723.06;1782579;79;21019;-83
2022/03/26 05:55:39;;;;;;;36.60;18.17;;;;;;;-0.44;60.09;98716.75;1803649;79;20994;-84
2022/03/26 05:58:05;;;;;;;32.58;17.52;;;;;;;-0.36;59.85;98710.84;1801556;78;20965;-84
2022/03/26 06:00:32;;;;;;;36.33;17.45;;;;;;;-0.27;59.80;98716.30;1787940;80;21080;-84
2022/03/26 06:02:58;;;;;;;32.08;17.30;;;;;;;-0.16;59.70;98716.13;1788092;80;21008;-83
2022/03/26 06:05:25;;;;;;;32.15;16.75;;;;;;;-0.07;59.45;98719.82;1787979;80;21425;-84
2022/03/26 06:07:51;;;;;;;39.25;18.77;;;;;;;-0.01;59.37;98716.95;1787860;80;21028;-85
2022/03/26 06:10:18;;;;;;;33.08;17.95;;;;;;;0.10;59.35;98719.83;1781050;78;21401;-85
2022/03/26 06:12:45;;;;;;;35.92;18.85;;;;;;;0.17;59.33;98718.66;1769301;81;21012;-85
2022/03/26 06:15:12;;;;;;;34.15;17.55;;;;;;;0.24;59.26;98724.47;1739141;82;21027;-84
2022/03/26 06:17:39;;;;;;;37.50;18.23;;;;;;;0.32;59.52;98710.30;1769003;81;20977;-84
2022/03/26 06:20:06;;;;;;;33.18;17.65;;;;;;;0.38;59.04;98721.77;1738817;82;20992;-84
2022/03/26 06:22:32;;;;;;;30.72;18.15;;;;;;;0.45;58.81;98725.39;1788567;79;21079;-84
2022/03/26 06:24:59;;;;;;;35.55;18.52;;;;;;;0.54;58.75;98723.85;1803799;79;20976;-84
2022/03/26 06:27:25;;;;;;;34.80;17.05;;;;;;;0.58;58.78;98721.33;1804024;79;21480;-85
2022/03/26 06:29:51;;;;;;;33.67;17.27;;;;;;;0.67;58.65;98723.28;1804167;79;21051;-84
2022/03/26 06:32:18;;;;;;;32.88;17.98;;;;;;;0.78;58.51;98720.48;1790696;79;21047;-84
2022/03/26 06:34:45;;;;;;;33.60;17.75;;;;;;;0.89;58.12;98723.33;1772625;81;21008;-85
2022/03/26 06:37:12;;;;;;;29.48;16.57;;;;;;;1.02;57.85;98726.17;1772557;81;21429;-84
2022/03/26 06:39:38;;;;;;;38.78;16.70;;;;;;;1.14;57.70;98730.36;1772758;81;21031;-85
2022/03/26 06:42:06;;;;;;;30.17;16.65;;;;;;;1.25;57.39;98729.69;1772728;81;21015;-84
2022/03/26 06:44:32;;;;;;;34.80;17.27;;;;;;;1.35;57.57;98717.26;1788892;79;21094;-84
2022/03/26 06:46:59;;;;;;;29.02;16.65;;;;;;;1.47;57.24;98731.39;1804227;79;21097;-84
2022/03/26 06:49:30;;;;;;;32.83;16.67;;;;;;;1.58;57.04;98730.74;1803768;79;21035;-84
2022/03/26 06:51:54;;;;;;;32.25;16.00;;;;;;;1.69;56.40;98735.28;1803739;79;21404;-84
2022/03/26 06:54:21;;;;;;;31.85;15.53;;;;;;;1.79;56.33;98731.12;1798453;78;20988;-84
2022/03/26 06:56:48;;;;;;;29.72;15.95;;;;;;;1.91;55.95;98736.98;1764389;79;21452;-83
2022/03/26 06:59:16;;;;;;;28.25;15.10;;;;;;;2.01;55.97;98734.98;1764307;80;21082;-83
2022/03/26 07:01:44;;;;;;;30.08;15.10;;;;;;;2.12;55.40;98741.70;1798383;78;21035;-84
2022/03/26 07:04:12;;;;;;;29.15;14.85;;;;;;;2.25;55.26;98736.24;1774834;81;21520;-83
2022/03/26 07:06:39;;;;;;;34.13;19.77;;;;;;;2.37;54.96;98738.17;1802001;79;21034;-83
2022/03/26 07:09:05;;;;;;;28.87;15.78;;;;;;;2.49;54.82;98740.96;1803500;79;21008;-84
2022/03/26 07:11:32;;;;;;;30.68;15.28;;;;;;;2.62;54.53;98742.47;1796840;79;21051;-84
2022/03/26 07:13:58;;;;;;;28.32;15.15;;;;;;;2.74;54.32;98743.07;1772542;81;21100;-84
2022/03/26 07:16:25;;;;;;;25.10;14.68;;;;;;;2.87;53.90;98742.36;1776545;79;21371;-84
2022/03/26 07:18:51;;;;;;;30.80;15.88;;;;;;;3.01;53.11;98745.19;1773567;79;21073;-85
2022/03/26 07:21:18;;;;;;;30.35;15.95;;;;;;;3.14;52.97;98744.02;1791292;79;21401;-84
2022/03/26 07:23:44;;;;;;;32.30;17.45;;;;;;;3.29;52.43;98747.27;1790031;79;21008;-85
2022/03/26 07:26:11;;;;;;;28.73;16.05;;;;;;;3.43;52.14;98740.86;1794766;79;20980;-85
2022/03/26 07:28:38;;;;;;;29.00;15.85;;;;;;;3.59;51.15;98743.65;1786584;79;21044;-84
2022/03/26 07:31:06;;;;;;;27.87;16.25;;;;;;;3.74;51.16;98739.01;1791928;79;20956;-85
2022/03/26 07:33:33;;;;;;;29.20;16.12;;;;;;;3.86;51.39;98736.95;1798065;79;21496;-85
2022/03/26 07:35:59;;;;;;;28.75;16.65;;;;;;;3.96;51.34;98736.16;1804004;79;20972;-83
2022/03/26 07:38:26;;;;;;;28.83;16.12;;;;;;;4.07;51.00;98743.68;1795885;79;21008;-83
2022/03/26 07:40:53;;;;;;;30.52;17.40;;;;;;;4.19;50.68;98736.35;1795506;79;21055;-84
2022/03/26 07:43:19;;;;;;;33.60;20.02;;;;;;;4.31;50.39;98733.37;1798536;79;21066;-83
2022/03/26 07:45:46;;;;;;;36.65;19.27;;;;;;;4.39;49.46;98734.31;1774502;79;21603;-84
2022/03/26 07:48:13;;;;;;;37.00;19.40;;;;;;;4.49;49.86;98730.88;1798721;79;21047;-84
2022/03/26 07:50:39;;;;;;;32.85;19.20;;;;;;;4.66;48.23;98734.50;1774899;79;21058;-84
2022/03/26 07:53:06;;;;;;;34.35;18.55;;;;;;;4.80;48.47;98730.20;1771999;81;21003;-84
2022/03/26 07:55:32;;;;;;;33.85;18.75;;;;;;;4.94;47.68;98727.64;1783819;80;21031;-84
2022/03/26 07:57:59;;;;;;;31.48;17.37;;;;;;;5.05;48.21;98728.13;1787895;79;21100;-85
2022/03/26 08:00:25;;;;;;;26.40;16.75;;;;;;;5.15;48.20;98722.06;1787451;80;21429;-83
2022/03/26 08:02:51;;;;;;;32.48;16.52;;;;;;;5.27;47.55;98727.36;1781262;80;21078;-83
2022/03/26 08:05:18;;;;;;;29.45;16.40;;;;;;;5.38;47.48;98713.37;1794337;80;20988;-84
2022/03/26 08:07:44;;;;;;;28.40;16.65;;;;;;;5.50;44.57;98709.89;1836796;78;21416;-83
2022/03/26 08:10:11;;;;;;;28.73;17.00;;;;;;;5.67;46.47;98716.51;1836722;78;20992;-82
2022/03/26 08:12:38;;;;;;;25.10;15.63;;;;;;;5.80;46.31;98716.98;1836738;78;21019;-83
2022/03/26 08:15:06;;;;;;;29.90;17.92;;;;;;;5.91;45.86;98714.80;1812194;78;21027;-83
2022/03/26 08:17:34;;;;;;;34.70;17.70;;;;;;;6.09;44.20;98706.06;1802936;79;21030;-83
2022/03/26 08:20:00;;;;;;;32.73;17.42;;;;;;;6.33;42.47;98706.94;1802369;79;21348;-83
2022/03/26 08:22:27;;;;;;;26.75;17.40;;;;;;;6.57;43.81;98707.78;1803751;79;21022;-83
2022/03/26 08:24:53;;;;;;;32.67;16.07;;;;;;;6.73;42.27;98701.59;1803684;79;20979;-83
2022/03/26 08:27:20;;;;;;;29.95;16.27;;;;;;;6.94;39.49;98704.17;1794583;79;21052;-83
2022/03/26 08:29:46;;;;;;;24.90;14.70;;;;;;;7.07;42.11;98708.95;1797369;79;21661;-83
2022/03/26 08:32:13;;;;;;;31.27;17.50;;;;;;;7.15;42.20;98699.70;1797298;79;21043;-83
2022/03/26 08:34:39;;;;;;;28.25;16.17;;;;;;;7.29;40.80;98707.10;1809983;78;21019;-83
2022/03/26 08:37:06;;;;;;;26.77;16.50;;;;;;;7.43;41.45;98710.12;1819537;78;20993;-83
2022/03/26 08:39:32;;;;;;;39.18;18.55;;;;;;;7.62;41.17;98697.69;1830154;78;21056;-83
2022/03/26 08:41:59;;;;;;;33.02;18.15;;;;;;;7.81;39.87;98698.47;1830260;78;20972;-83
2022/03/26 08:44:25;;;;;;;32.90;19.30;;;;;;;8.02;39.99;98694.77;1825479;78;20972;-83
2022/03/26 08:46:52;;;;;;;33.02;19.55;;;;;;;8.16;40.15;98696.42;1838774;78;21432;-83
2022/03/26 08:49:18;;;;;;;37.90;21.12;;;;;;;8.27;39.89;98693.23;1830940;78;21008;-83
2022/03/26 08:51:45;;;;;;;41.77;21.62;;;;;;;8.40;39.14;98694.45;1801203;78;21409;-83
2022/03/26 08:54:12;;;;;;;32.75;19.32;;;;;;;8.55;39.28;98691.69;1781085;80;21055;-83
2022/03/26 08:56:38;;;;;;;31.48;19.57;;;;;;;8.68;39.67;98682.33;1781132;80;21015;-81
2022/03/26 08:59:05;;;;;;;37.48;19.57;;;;;;;8.84;39.47;98683.90;1783184;79;20987;-81
2022/03/26 09:01:32;;;;;;;35.33;20.68;;;;;;;9.04;37.99;98677.94;1797652;80;20975;-82
2022/03/26 09:03:58;;;;;;;35.28;19.30;;;;;;;9.20;37.05;98671.58;1797963;79;20999;-84
2022/03/26 09:06:25;;;;;;;32.20;18.25;;;;;;;9.37;36.84;98669.14;1800945;78;21039;-82
2022/03/26 09:08:51;;;;;;;32.98;19.32;;;;;;;9.56;36.34;98663.16;1780925;80;21561;-81
2022/03/26 09:11:18;;;;;;;34.67;18.75;;;;;;;9.74;36.58;98654.49;1799673;78;20952;-81
2022/03/26 09:13:45;;;;;;;33.70;17.10;;;;;;;9.89;35.79;98654.72;1832215;78;21015;-81
2022/03/26 09:16:12;;;;;;;31.10;19.07;;;;;;;10.08;35.92;98652.63;1813448;79;21561;-82
2022/03/26 09:18:38;;;;;;;33.42;17.57;;;;;;;10.24;34.73;98651.03;1805019;79;21020;-81
2022/03/26 09:21:05;;;;;;;25.68;17.37;;;;;;;10.40;34.87;98643.25;1796161;80;20960;-81
2022/03/26 09:23:33;;;;;;;28.77;17.55;;;;;;;10.56;33.65;98643.84;1799238;79;21465;-80
2022/03/26 09:26:04;;;;;;;25.72;16.35;;;;;;;10.72;33.70;98638.27;1825153;78;20987;-79
2022/03/26 09:28:28;;;;;;;24.12;14.80;;;;;;;10.95;33.92;98630.28;1817905;78;21043;-79
2022/03/26 09:30:54;;;;;;;25.68;14.38;;;;;;;11.12;34.01;98625.94;1775735;81;21056;-80
2022/03/26 09:33:21;;;;;;;21.73;14.53;;;;;;;11.28;33.54;98626.48;1807394;79;21456;-80
2022/03/26 09:35:48;;;;;;;21.42;13.70;;;;;;;11.48;33.67;98622.50;1764842;81;21018;-81
2022/03/26 09:38:15;;;;;;;22.13;13.58;;;;;;;11.62;33.93;98624.38;1777080;81;20985;-80
2022/03/26 09:40:44;;;;;;;20.08;12.53;;;;;;;11.72;34.83;98618.86;1777338;81;21079;-81
2022/03/26 09:43:13;;;;;;;18.25;12.35;;;;;;;11.82;33.50;98617.72;1777263;81;21450;-81
2022/03/26 09:45:40;;;;;;;19.80;12.73;;;;;;;11.95;34.14;98614.30;1746325;81;21053;-81
2022/03/26 09:48:07;;;;;;;19.87;12.40;;;;;;;12.04;34.40;98609.20;1746608;82;21060;-84
2022/03/26 09:50:35;;;;;;;21.95;13.62;;;;;;;12.13;34.98;98610.32;1754966;81;21001;-79
2022/03/26 09:53:01;;;;;;;23.38;12.35;;;;;;;12.20;34.16;98603.55;1774362;80;20957;-78
2022/03/26 09:55:30;;;;;;;22.82;14.05;;;;;;;12.35;32.32;98596.92;1773081;79;21396;-82
2022/03/26 09:57:58;;;;;;;20.27;12.93;;;;;;;12.49;33.38;98593.88;1775372;81;21491;-82
2022/03/26 10:00:24;;;;;;;18.77;12.37;;;;;;;12.61;32.83;98595.32;1776525;81;21011;-83
2022/03/26 10:02:51;;;;;;;20.32;13.53;;;;;;;12.73;34.02;98592.33;1768306;81;21030;-83
2022/03/26 10:05:18;;;;;;;26.02;13.13;;;;;;;12.90;32.95;98588.30;1748159;79;21060;-83
2022/03/26 10:07:48;;;;;;;22.67;12.82;;;;;;;13.00;31.56;98584.92;1768405;79;20965;-83
2022/03/26 10:10:25;;;;;;;22.30;12.47;;;;;;;13.13;32.55;98577.43;1772368;81;21452;-83
2022/03/26 10:12:52;;;;;;;21.73;12.75;;;;;;;13.22;33.37;98573.16;1769536;81;20991;-84
2022/03/26 10:15:19;;;;;;;27.82;13.98;;;;;;;13.36;31.59;98564.73;1771917;81;21008;-83
2022/03/26 10:17:46;;;;;;;21.77;12.23;;;;;;;13.51;31.09;98552.76;1771761;79;20985;-85
2022/03/26 10:20:15;;;;;;;20.80;13.25;;;;;;;13.61;31.64;98558.63;1770018;81;21021;-83
2022/03/26 10:22:50;;;;;;;21.27;13.60;;;;;;;13.76;31.12;98554.61;1771860;81;21535;-85
2022/03/26 10:25:21;;;;;;;21.10;13.35;;;;;;;13.97;31.49;98547.68;1768339;81;21012;-82
2022/03/26 10:27:57;;;;;;;20.88;13.10;;;;;;;14.10;31.15;98549.45;1774498;81;21014;-83
2022/03/26 10:33:32;;;;;;;20.05;13.72;;;;;;;14.42;31.22;98535.89;1802640;79;20996;-85
2022/03/26 10:36:02;;;;;;;22.32;13.10;;;;;;;14.62;30.78;98535.13;1806299;78;21036;-83
2022/03/26 10:38:37;;;;;;;23.12;12.63;;;;;;;14.78;29.87;98529.24;1804107;78;20991;-83
2022/03/26 10:41:07;;;;;;;18.40;11.83;;;;;;;14.95;30.65;98526.41;1778063;79;21070;-83
2022/03/26 10:43:36;;;;;;;22.22;12.13;;;;;;;15.14;30.91;98528.76;1811163;79;20971;-83
2022/03/26 10:46:03;;;;;;;15.80;9.23;;;;;;;15.45;30.61;98527.99;1813047;79;21034;-83
2022/03/26 10:48:37;;;;;;;15.90;10.15;;;;;;;16.29;27.31;98514.23;1812687;79;20959;-85
2022/03/26 10:51:15;;;;;;;20.48;13.18;;;;;;;16.52;28.57;98511.00;1813059;79;21026;-85
2022/03/26 10:53:46;;;;;;;19.50;12.03;;;;;;;17.38;28.67;98502.52;1808187;79;20972;-86
2022/03/26 10:56:15;;;;;;;21.73;11.97;;;;;;;18.26;26.08;98501.22;1797071;80;20984;-83
2022/03/26 10:58:43;;;;;;;17.62;12.80;;;;;;;19.24;24.93;98499.08;1796926;79;21079;-84
2022/03/26 11:01:10;;;;;;;22.67;13.98;;;;;;;20.22;24.88;98489.33;1796912;80;21008;-84
2022/03/26 11:03:37;;;;;;;18.62;12.53;;;;;;;21.15;24.51;98485.36;1810345;79;21010;-82
2022/03/26 11:06:09;;;;;;;11.35;8.35;;;;;;;21.97;21.74;98480.89;1809922;79;21061;-80
2022/03/26 11:08:41;;;;;;;11.33;7.97;;;;;;;22.15;19.71;98474.22;1780675;80;20991;-81
2022/03/26 11:11:11;;;;;;;14.30;7.78;;;;;;;22.46;19.44;98470.31;1781597;80;21459;-81
2022/03/26 11:13:48;;;;;;;10.40;7.28;;;;;;;22.85;19.36;98471.16;1755430;80;20981;-81
2022/03/26 11:16:26;;;;;;;10.50;6.35;;;;;;;23.41;19.67;98465.72;1811189;79;20962;-82
2022/03/26 11:19:13;;;;;;;11.00;6.67;;;;;;;22.81;18.37;98455.66;1780418;80;21040;-85
2022/03/26 11:22:14;;;;;;;10.28;6.87;;;;;;;23.75;19.05;98451.97;1811280;79;21423;-80